Time;durP1;ratioP1;P1;durP2;ratioP2;P2;SDS_P1;SDS_P2;PMS_P1;PMS_P2;Temp;Humidity;BMP_temperature;BMP_pressure;BME280_temperature;BME280_humidity;BME280_pressure;Samples;Min_cycle;Max_cycle;Signal;HPM_P1;HPM_P2
2022/05/14 00:01:14;;;;;;;;;5.25;5.00;;;;;16.62;46.85;101913.69;5038992;28;46362;-70
2022/05/14 00:03:40;;;;;;;;;5.00;5.00;;;;;16.59;46.50;101914.63;5040389;28;45142;-70
2022/05/14 00:06:09;;;;;;;;;4.25;4.00;;;;;16.54;48.13;101913.91;5039900;28;45348;-68
2022/05/14 00:08:38;;;;;;;;;4.50;4.25;;;;;16.52;47.43;101918.38;5040103;28;45371;-68
2022/05/14 00:13:49;;;;;;;;;6.00;6.00;;;;;16.46;47.29;101909.84;5045287;28;45795;-70
2022/05/14 00:16:15;;;;;;;;;6.75;5.00;;;;;16.42;47.49;101912.59;5038274;28;45545;-69
2022/05/14 00:18:41;;;;;;;;;7.75;4.00;;;;;16.41;47.83;101915.22;5037578;28;45356;-69
2022/05/14 00:21:07;;;;;;;;;7.00;5.75;;;;;16.28;47.81;101890.31;5036386;28;45378;-65
2022/05/14 00:23:32;;;;;;;;;4.75;4.75;;;;;16.34;48.24;101903.22;5037931;28;45280;-66
2022/05/14 00:25:58;;;;;;;;;6.00;5.00;;;;;16.38;47.98;101916.19;5037232;28;45459;-68
2022/05/14 00:28:24;;;;;;;;;4.75;4.75;;;;;16.40;48.08;101913.50;5039569;28;45302;-67
2022/05/14 00:30:49;;;;;;;;;6.50;4.75;;;;;16.39;48.22;101914.41;5039903;28;46045;-68
2022/05/14 00:33:15;;;;;;;;;8.25;5.00;;;;;16.38;48.65;101917.97;5038300;28;45974;-68
2022/05/14 00:35:41;;;;;;;;;7.75;5.75;;;;;16.35;48.59;101916.28;5039671;28;45300;-68
2022/05/14 00:38:10;;;;;;;;;6.00;5.50;;;;;16.33;48.87;101915.50;5039889;28;45337;-69
2022/05/14 00:40:54;;;;;;;;;7.00;6.00;;;;;16.32;49.07;101905.03;5039278;28;45514;-67
2022/05/14 00:43:20;;;;;;;;;7.75;7.00;;;;;16.32;49.20;101902.41;5039237;28;45256;-70
2022/05/14 00:45:52;;;;;;;;;5.00;5.00;;;;;16.30;49.10;101906.88;5038758;28;45324;-68
2022/05/14 00:48:18;;;;;;;;;5.75;5.25;;;;;16.31;49.23;101908.56;5039077;28;45303;-69
2022/05/14 00:50:54;;;;;;;;;6.75;6.50;;;;;16.29;49.38;101902.53;5039371;28;46248;-70
2022/05/14 00:53:31;;;;;;;;;5.00;5.00;;;;;16.27;49.53;101899.09;5039286;28;45230;-71
2022/05/14 00:56:01;;;;;;;;;6.25;6.00;;;;;16.27;49.42;101899.09;5037287;28;45402;-70
2022/05/14 00:58:43;;;;;;;;;5.75;5.25;;;;;16.23;49.44;101893.09;5039281;28;45628;-69
2022/05/14 01:01:09;;;;;;;;;5.00;5.00;;;;;16.22;49.38;101903.63;5039489;28;45431;-67
2022/05/14 01:03:34;;;;;;;;;5.50;5.00;;;;;16.19;49.74;101896.72;5037987;28;45677;-66
2022/05/14 01:06:03;;;;;;;;;8.00;6.50;;;;;16.20;49.54;101894.94;5039165;28;45557;-67
2022/05/14 01:08:30;;;;;;;;;6.00;6.00;;;;;16.17;49.40;101897.66;5039663;28;45540;-66
2022/05/14 01:10:56;;;;;;;;;10.75;8.00;;;;;16.16;49.59;101895.94;5039237;28;45659;-67
2022/05/14 01:13:22;;;;;;;;;9.50;8.00;;;;;16.03;49.43;101872.75;5041799;28;45743;-67
2022/05/14 01:15:52;;;;;;;;;8.50;8.00;;;;;16.15;49.55;101895.09;5039601;28;45248;-67
2022/05/14 01:18:22;;;;;;;;;7.25;6.00;;;;;16.10;49.73;101884.75;5038335;28;45363;-67
2022/05/14 01:20:53;;;;;;;;;7.50;7.50;;;;;16.10;49.71;101883.91;5038873;28;45434;-66
2022/05/14 01:26:35;;;;;;;;;8.25;5.50;;;;;16.09;49.72;101890.06;5037497;28;45449;-68
2022/05/14 01:29:11;;;;;;;;;6.00;6.00;;;;;16.06;49.84;101885.78;5038897;28;45327;-69
2022/05/14 01:31:38;;;;;;;;;8.00;7.00;;;;;16.05;49.92;101883.19;5039382;28;45413;-68
2022/05/14 01:34:09;;;;;;;;;5.75;5.00;;;;;16.00;50.24;101878.09;5041231;28;45854;-68
2022/05/14 01:36:37;;;;;;;;;6.00;6.00;;;;;16.00;50.35;101879.84;5040895;28;45527;-69
2022/05/14 01:39:04;;;;;;;;;10.75;9.50;;;;;15.97;50.04;101888.66;5042774;28;45486;-69
2022/05/14 01:41:29;;;;;;;;;12.00;11.75;;;;;15.95;50.35;101880.00;5042395;28;45439;-68
2022/05/14 01:43:55;;;;;;;;;7.75;7.00;;;;;15.93;50.35;101884.44;5042519;28;45486;-69
2022/05/14 01:46:21;;;;;;;;;7.00;5.25;;;;;15.91;50.27;101881.00;5041035;28;45444;-69
2022/05/14 01:48:47;;;;;;;;;6.00;5.00;;;;;15.89;50.21;101882.81;5042382;28;45303;-68
2022/05/14 01:51:15;;;;;;;;;6.25;5.00;;;;;15.86;50.29;101876.81;5043697;28;45668;-68
2022/05/14 01:53:41;;;;;;;;;4.00;4.00;;;;;15.86;50.41;101869.81;5052997;28;45751;-67
2022/05/14 01:56:07;;;;;;;;;6.75;5.25;;;;;15.85;50.56;101875.97;5040729;28;45254;-67
2022/05/14 01:58:38;;;;;;;;;7.00;7.00;;;;;15.87;50.55;101868.06;5042227;28;45249;-67
2022/05/14 02:01:19;;;;;;;;;9.50;5.75;;;;;15.85;50.57;101878.59;5041964;28;47135;-68
2022/05/14 02:03:48;;;;;;;;;6.25;6.00;;;;;15.81;50.42;101867.31;5042042;28;45331;-68
2022/05/14 02:06:14;;;;;;;;;7.00;5.25;;;;;15.83;51.01;101877.78;5041994;28;45548;-67
2022/05/14 02:08:40;;;;;;;;;7.00;7.00;;;;;15.79;50.66;101869.13;5042052;28;45341;-67
2022/05/14 02:11:08;;;;;;;;;6.50;6.50;;;;;15.80;51.00;101878.72;5041873;28;45403;-68
2022/05/14 02:13:34;;;;;;;;;6.00;6.00;;;;;15.77;50.85;101878.81;5046194;28;45420;-67
2022/05/14 02:15:59;;;;;;;;;7.50;7.00;;;;;15.75;50.93;101870.13;5044275;28;45432;-67
2022/05/14 02:18:25;;;;;;;;;12.00;7.00;;;;;15.75;50.55;101866.66;5041971;28;45477;-68
2022/05/14 02:20:50;;;;;;;;;5.00;5.00;;;;;15.71;51.08;101867.66;5041678;28;45614;-67
2022/05/14 02:23:16;;;;;;;;;7.50;6.50;;;;;15.68;50.85;101862.53;5041926;28;45319;-68
2022/05/14 02:25:42;;;;;;;;;8.50;6.25;;;;;15.66;51.42;101861.72;5044446;28;45653;-68
2022/05/14 02:28:08;;;;;;;;;8.25;7.75;;;;;15.66;51.42;101866.94;5050680;28;45506;-68
2022/05/14 02:30:33;;;;;;;;;7.75;7.75;;;;;15.64;51.55;101866.16;5042339;28;45244;-68
2022/05/14 02:32:58;;;;;;;;;10.00;7.00;;;;;15.61;51.78;101863.59;5041727;28;45304;-68
2022/05/14 02:35:24;;;;;;;;;11.00;8.50;;;;;15.60;51.74;101867.13;5041563;28;45226;-68
2022/05/14 02:37:50;;;;;;;;;12.00;7.50;;;;;15.59;51.80;101868.03;5041736;28;45418;-69
2022/05/14 02:40:16;;;;;;;;;8.00;8.00;;;;;15.57;52.06;101870.66;5041468;28;45384;-68
2022/05/14 02:42:41;;;;;;;;;6.50;6.00;;;;;15.56;52.03;101870.72;5041452;28;45228;-69
2022/05/14 02:45:08;;;;;;;;;9.00;8.00;;;;;15.53;52.10;101877.75;5040868;28;45288;-69
2022/05/14 02:47:33;;;;;;;;;10.00;8.00;;;;;15.52;52.51;101875.19;5041415;28;45659;-69
2022/05/14 02:49:59;;;;;;;;;8.75;8.00;;;;;15.48;52.22;101873.56;5040838;28;45591;-69
2022/05/14 02:52:24;;;;;;;;;10.00;8.75;;;;;15.46;52.16;101873.63;5041445;28;45590;-69
2022/05/14 02:54:50;;;;;;;;;9.50;8.00;;;;;15.46;52.48;101880.63;5041468;28;45365;-69
2022/05/14 02:57:16;;;;;;;;;8.00;8.00;;;;;15.44;52.59;101875.44;5040976;28;45427;-68
2022/05/14 02:59:42;;;;;;;;;8.00;7.00;;;;;15.42;52.63;101882.47;5041304;28;45361;-67
2022/05/14 03:02:07;;;;;;;;;12.00;9.00;;;;;15.43;52.68;101884.19;5041265;28;45348;-68
2022/05/14 03:04:37;;;;;;;;;10.75;10.75;;;;;15.39;52.67;101877.31;5041203;28;45421;-68
2022/05/14 03:07:07;;;;;;;;;9.25;9.25;;;;;15.40;53.07;101879.00;5041404;28;45441;-68
2022/05/14 03:09:34;;;;;;;;;11.00;9.25;;;;;15.39;52.97;101879.06;5040873;28;46273;-68
2022/05/14 03:12:00;;;;;;;;;12.00;9.25;;;;;15.39;52.92;101879.06;5041052;28;45297;-68
2022/05/14 03:14:25;;;;;;;;;10.50;8.75;;;;;15.36;53.34;101876.53;5047586;28;45405;-68
2022/05/14 03:16:51;;;;;;;;;11.75;11.25;;;;;15.41;53.21;101882.50;5041294;28;45473;-67
2022/05/14 03:19:17;;;;;;;;;8.25;7.75;;;;;15.39;53.03;101877.31;5040969;28;45343;-68
2022/05/14 03:21:43;;;;;;;;;13.50;8.00;;;;;15.37;53.04;101876.50;5040721;28;45228;-68
2022/05/14 03:24:10;;;;;;;;;11.75;8.75;;;;;15.34;53.29;101873.09;5040967;28;45338;-67
2022/05/14 03:26:39;;;;;;;;;12.75;11.50;;;;;15.31;53.01;101881.91;5051750;28;45417;-67
2022/05/14 03:29:04;;;;;;;;;13.75;12.25;;;;;15.29;53.33;101880.25;5041128;28;45398;-68
2022/05/14 03:31:31;;;;;;;;;12.25;9.75;;;;;15.24;53.56;101875.16;5040978;28;45260;-68
2022/05/14 03:33:57;;;;;;;;;13.25;12.00;;;;;15.23;53.28;101880.44;5040770;28;45308;-68
2022/05/14 03:36:23;;;;;;;;;15.75;14.00;;;;;15.21;53.75;101877.81;5039030;28;45609;-68
2022/05/14 03:38:48;;;;;;;;;21.25;15.75;;;;;15.18;53.75;101872.69;5040434;28;45359;-68
2022/05/14 03:41:14;;;;;;;;;19.25;14.75;;;;;15.16;53.46;101879.72;5040682;28;45364;-68
2022/05/14 03:43:39;;;;;;;;;17.50;15.25;;;;;15.14;53.78;101876.28;5040434;28;45502;-68
2022/05/14 03:46:04;;;;;;;;;24.00;17.50;;;;;15.11;53.85;101871.16;5040607;28;45424;-68
2022/05/14 03:48:30;;;;;;;;;16.25;15.75;;;;;15.10;54.06;101879.91;5039685;28;45323;-67
2022/05/14 03:50:56;;;;;;;;;19.00;17.75;;;;;15.02;54.12;101869.66;5040223;28;45273;-68
2022/05/14 03:53:22;;;;;;;;;22.25;16.75;;;;;15.00;54.13;101870.56;5040204;28;45299;-69
2022/05/14 03:55:48;;;;;;;;;19.00;19.00;;;;;15.00;54.28;101874.06;5040287;28;45525;-68
2022/05/14 03:58:13;;;;;;;;;18.00;16.00;;;;;14.91;54.12;101869.09;5040099;28;45411;-68
2022/05/14 04:00:38;;;;;;;;;15.00;14.25;;;;;14.95;54.32;101875.09;5040519;28;45240;-69
2022/05/14 04:03:04;;;;;;;;;15.75;15.75;;;;;14.92;54.25;101870.81;5040244;28;45303;-68
2022/05/14 04:05:29;;;;;;;;;15.00;11.50;;;;;14.90;54.45;101872.59;5039813;28;45225;-68
2022/05/14 04:07:55;;;;;;;;;16.50;13.25;;;;;14.91;54.27;101875.19;5040066;28;46455;-68
2022/05/14 04:10:20;;;;;;;;;14.50;14.00;;;;;14.91;54.52;101875.19;5040261;28;45177;-68
2022/05/14 04:12:46;;;;;;;;;13.25;11.25;;;;;14.91;54.93;101864.72;5038863;28;45321;-69
2022/05/14 04:15:14;;;;;;;;;17.75;14.75;;;;;14.89;55.12;101866.50;5046534;28;45636;-69
2022/05/14 04:17:39;;;;;;;;;16.50;15.75;;;;;14.86;55.00;101876.22;5039760;28;45339;-68
2022/05/14 04:20:06;;;;;;;;;17.25;15.25;;;;;14.88;55.37;101871.78;5041619;28;45476;-68
2022/05/14 04:22:31;;;;;;;;;18.25;15.00;;;;;14.87;55.08;101876.16;5050143;28;45512;-69
2022/05/14 04:24:57;;;;;;;;;19.25;14.50;;;;;14.85;55.38;101880.59;5045351;28;45487;-69
2022/05/14 04:27:23;;;;;;;;;20.25;16.25;;;;;14.84;55.24;101878.88;5050263;28;46079;-69
2022/05/14 04:29:48;;;;;;;;;16.50;14.75;;;;;14.85;55.34;101867.50;5049273;28;45248;-70
2022/05/14 04:32:13;;;;;;;;;15.25;14.75;;;;;14.87;55.09;101878.78;5049186;28;45548;-70
2022/05/14 04:34:39;;;;;;;;;21.00;17.00;;;;;14.87;55.43;101885.78;5048829;28;45411;-70
2022/05/14 04:37:04;;;;;;;;;15.25;14.25;;;;;14.84;55.27;101868.41;5048617;28;46333;-70
2022/05/14 04:39:33;;;;;;;;;19.50;16.00;;;;;14.90;55.44;101880.47;5047673;28;45298;-68
2022/05/14 04:42:04;;;;;;;;;21.25;18.50;;;;;14.93;55.76;101880.38;5047648;28;45497;-69
2022/05/14 04:44:32;;;;;;;;;23.00;20.25;;;;;14.90;55.30;101877.84;5050146;28;45488;-69
2022/05/14 04:46:57;;;;;;;;;21.50;18.25;;;;;14.90;55.52;101876.09;5046215;28;46760;-69
2022/05/14 04:49:23;;;;;;;;;22.50;20.00;;;;;14.91;55.46;101883.03;5051283;28;45261;-70
2022/05/14 04:51:48;;;;;;;;;20.75;18.75;;;;;14.94;55.42;101884.69;5047337;28;45548;-69
2022/05/14 04:54:14;;;;;;;;;15.75;15.75;;;;;14.95;55.59;101880.31;5049529;28;45319;-68
2022/05/14 04:56:39;;;;;;;;;15.00;14.25;;;;;15.00;55.43;101889.75;5047018;28;45439;-68
2022/05/14 04:59:05;;;;;;;;;15.00;15.00;;;;;14.96;55.38;101882.03;5047763;28;45332;-68
2022/05/14 05:01:30;;;;;;;;;21.50;15.50;;;;;15.00;54.97;101881.06;5050223;28;45450;-68
2022/05/14 05:03:57;;;;;;;;;20.25;16.25;;;;;15.02;55.17;101887.13;5049482;28;45295;-68
2022/05/14 05:06:23;;;;;;;;;17.75;14.00;;;;;15.00;55.21;101881.06;5046265;28;46148;-68
2022/05/14 05:08:51;;;;;;;;;20.75;13.00;;;;;15.04;55.96;101893.19;5045837;28;45297;-68
2022/05/14 05:11:18;;;;;;;;;15.25;13.50;;;;;15.07;55.41;101890.47;5045869;28;45340;-68
2022/05/14 05:13:44;;;;;;;;;12.50;12.50;;;;;15.08;55.43;101885.19;5052841;28;45436;-69
2022/05/14 05:16:10;;;;;;;;;15.25;12.50;;;;;15.10;55.32;101887.75;5047114;28;45636;-69
2022/05/14 05:18:36;;;;;;;;;11.50;11.25;;;;;15.13;55.41;101879.81;5044414;28;45578;-68
2022/05/14 05:21:01;;;;;;;;;16.00;14.25;;;;;15.16;55.21;101882.34;5051639;28;45307;-68
2022/05/14 05:23:27;;;;;;;;;18.75;15.25;;;;;15.16;55.24;101888.44;5053374;28;45333;-68
2022/05/14 05:25:55;;;;;;;;;16.50;13.75;;;;;15.19;55.29;101890.09;5044124;28;47063;-69
2022/05/14 05:28:21;;;;;;;;;14.00;13.25;;;;;15.26;55.33;101904.78;5045518;28;45367;-69
2022/05/14 05:30:48;;;;;;;;;16.25;12.50;;;;;15.31;54.99;101900.25;5045481;28;45291;-68
2022/05/14 05:33:21;;;;;;;;;10.75;9.75;;;;;15.37;55.62;101907.06;5044262;28;45526;-68
2022/05/14 05:35:46;;;;;;;;;17.50;14.00;;;;;15.37;55.12;101899.22;5045408;28;45495;-69
2022/05/14 05:38:12;;;;;;;;;14.50;11.75;;;;;15.39;54.63;101895.63;5045336;28;45260;-68
2022/05/14 05:40:37;;;;;;;;;14.00;12.50;;;;;15.45;54.77;101898.09;5045984;28;45394;-68
2022/05/14 05:43:05;;;;;;;;;10.50;10.50;;;;;15.51;55.17;101891.81;5043757;28;45484;-68
2022/05/14 05:45:31;;;;;;;;;15.00;14.00;;;;;15.61;54.66;101893.28;5045626;28;45362;-68
2022/05/14 05:47:58;;;;;;;;;16.75;14.25;;;;;15.73;54.38;101898.16;5045090;28;45338;-68
2022/05/14 05:50:24;;;;;;;;;14.00;13.00;;;;;15.81;54.71;101893.53;5045730;28;45252;-67
2022/05/14 05:52:52;;;;;;;;;16.75;11.25;;;;;15.93;54.09;101905.41;5045111;28;45605;-68
2022/05/14 05:58:03;;;;;;;;;10.00;8.25;;;;;16.07;53.65;101889.25;5043316;28;45759;-67
2022/05/14 06:00:28;;;;;;;;;20.75;15.00;;;;;16.16;53.59;101906.44;5045563;28;45157;-67
2022/05/14 06:02:54;;;;;;;;;9.75;8.50;;;;;16.27;52.97;101906.97;5045751;28;45292;-66
2022/05/14 06:05:21;;;;;;;;;10.00;7.50;;;;;16.34;53.04;101904.09;5044962;28;45505;-67
2022/05/14 06:07:46;;;;;;;;;7.00;5.75;;;;;16.39;52.63;101910.03;5045180;28;45359;-67
2022/05/14 06:10:16;;;;;;;;;7.25;5.25;;;;;16.43;52.54;101908.19;5045494;28;45249;-67
2022/05/14 06:12:41;;;;;;;;;10.00;6.00;;;;;16.52;52.12;101907.88;5043761;28;45621;-67
2022/05/14 06:15:10;;;;;;;;;7.25;5.75;;;;;16.61;51.97;101911.94;5051900;28;48031;-67
2022/05/14 06:17:36;;;;;;;;;6.75;6.75;;;;;16.71;51.51;101916.88;5042840;28;45749;-67
2022/05/14 06:20:04;;;;;;;;;3.00;1.50;;;;;16.76;51.10;101911.44;5040930;28;45390;-67
2022/05/14 06:22:29;;;;;;;;;8.00;6.50;;;;;16.80;50.97;101914.81;5054588;28;45258;-67
2022/05/14 06:24:55;;;;;;;;;3.25;3.00;;;;;16.84;50.67;101908.59;5041913;28;46192;-67
2022/05/14 06:27:20;;;;;;;;;8.00;7.00;;;;;16.91;50.46;101913.56;5041698;28;45426;-67
2022/05/14 06:29:46;;;;;;;;;7.50;5.00;;;;;16.99;50.39;101915.91;5041954;28;45528;-67
2022/05/14 06:32:11;;;;;;;;;6.75;6.50;;;;;17.06;50.14;101922.66;5040006;28;45226;-66
2022/05/14 06:34:37;;;;;;;;;5.25;5.25;;;;;17.15;50.00;101921.47;5040112;28;47935;-70
2022/05/14 06:37:02;;;;;;;;;8.00;7.75;;;;;17.23;50.05;101916.81;5039534;28;45165;-70
2022/05/14 06:39:27;;;;;;;;;9.00;7.50;;;;;17.32;49.98;101917.31;5033563;28;45217;-68
2022/05/14 06:41:53;;;;;;;;;6.75;6.00;;;;;17.39;49.23;101930.22;5039999;28;45547;-66
2022/05/14 06:44:19;;;;;;;;;9.50;7.00;;;;;17.37;48.90;101926.78;5041247;28;45296;-67
2022/05/14 06:46:44;;;;;;;;;5.00;4.00;;;;;17.40;48.73;101926.69;5040983;28;45388;-69
2022/05/14 06:49:09;;;;;;;;;7.25;4.00;;;;;17.43;48.41;101926.59;5041951;28;45800;-69
2022/05/14 06:51:35;;;;;;;;;3.75;3.00;;;;;17.47;48.19;101915.91;5040937;28;45470;-69
2022/05/14 06:54:08;;;;;;;;;6.75;3.50;;;;;17.49;47.96;101918.47;5041571;28;45348;-69
2022/05/14 06:56:39;;;;;;;;;8.00;5.00;;;;;17.54;48.08;101921.78;5034724;28;45695;-70
2022/05/14 06:59:05;;;;;;;;;8.00;4.75;;;;;17.64;47.94;101926.66;5041373;28;45230;-67
2022/05/14 07:01:31;;;;;;;;;7.00;5.50;;;;;17.67;47.82;101925.66;5034771;28;45497;-69
2022/05/14 07:06:46;;;;;;;;;6.50;5.25;;;;;17.82;47.54;101925.13;5036700;28;45796;-67
2022/05/14 07:09:14;;;;;;;;;3.00;3.00;;;;;17.91;47.12;101930.00;5039204;28;45605;-68
2022/05/14 07:11:42;;;;;;;;;7.00;4.00;;;;;18.04;47.08;101929.53;5048888;28;45695;-68
2022/05/14 07:14:10;;;;;;;;;3.50;3.50;;;;;18.18;46.67;101929.81;5052262;28;45443;-69
2022/05/14 07:16:35;;;;;;;;;3.00;3.00;;;;;18.27;46.82;101926.84;5048794;28;45481;-69
2022/05/14 07:19:01;;;;;;;;;3.75;3.00;;;;;18.34;46.55;101920.38;5046773;28;45425;-68
2022/05/14 07:21:26;;;;;;;;;5.00;3.25;;;;;18.37;46.14;101911.50;5050383;28;45477;-68
2022/05/14 07:23:53;;;;;;;;;21.75;17.50;;;;;18.43;46.20;101922.66;5049288;28;45925;-68
2022/05/14 07:26:18;;;;;;;;;9.50;7.75;;;;;18.56;46.44;101920.34;5049455;28;45311;-69
2022/05/14 07:28:44;;;;;;;;;3.75;3.00;;;;;18.68;45.77;101924.28;5046112;28;45374;-68
2022/05/14 07:31:09;;;;;;;;;5.00;4.00;;;;;18.75;46.06;101920.47;5050080;28;45305;-69
2022/05/14 07:33:36;;;;;;;;;5.25;5.25;;;;;18.84;45.76;101906.91;5049357;28;46237;-69
2022/05/14 07:36:07;;;;;;;;;8.50;7.00;;;;;18.92;45.62;101910.06;5048898;28;45409;-69
2022/05/14 07:38:35;;;;;;;;;8.75;7.25;;;;;18.95;45.40;101912.56;5046071;28;45445;-69
2022/05/14 07:41:02;;;;;;;;;5.00;3.25;;;;;18.99;44.99;101914.13;5048287;28;45541;-68
2022/05/14 07:43:30;;;;;;;;;4.25;3.25;;;;;19.07;45.31;101919.09;5042940;28;45908;-69
2022/05/14 07:46:02;;;;;;;;;2.75;2.75;;;;;19.06;44.61;101912.97;5043860;28;45388;-68
2022/05/14 07:48:33;;;;;;;;;5.75;2.75;;;;;19.14;45.11;101908.19;5045747;28;45441;-68
2022/05/14 07:51:01;;;;;;;;;3.25;3.25;;;;;19.25;44.60;101907.72;5047817;28;45283;-69
2022/05/14 07:53:30;;;;;;;;;4.00;3.00;;;;;19.39;44.49;101904.44;5047871;28;45605;-70
2022/05/14 07:55:56;;;;;;;;;5.00;3.25;;;;;19.54;43.97;101908.19;5048372;28;45877;-68
2022/05/14 07:58:24;;;;;;;;;5.25;4.00;;;;;19.66;43.59;101907.63;5036066;28;45461;-72
2022/05/14 08:00:50;;;;;;;;;4.00;3.50;;;;;19.61;43.89;101909.59;5040633;28;45246;-72
2022/05/14 08:03:16;;;;;;;;;5.00;3.25;;;;;19.64;43.51;101907.72;5039604;28;45173;-72
2022/05/14 08:05:41;;;;;;;;;5.00;4.00;;;;;19.61;43.26;101913.09;5042629;28;45299;-72
2022/05/14 08:08:07;;;;;;;;;3.00;3.00;;;;;19.64;43.27;101905.06;5040000;28;45229;-70
2022/05/14 08:10:33;;;;;;;;;3.75;3.75;;;;;19.65;43.27;101906.78;5040220;28;45540;-72
2022/05/14 08:12:59;;;;;;;;;6.00;4.00;;;;;19.73;43.27;101909.91;5035498;28;45422;-72
2022/05/14 08:15:26;;;;;;;;;4.00;4.00;;;;;19.70;42.87;101906.56;5047155;28;45403;-73
2022/05/14 08:17:52;;;;;;;;;4.75;3.00;;;;;19.65;43.34;101901.50;5029542;28;45394;-72
2022/05/14 08:20:18;;;;;;;;;2.00;2.00;;;;;19.62;42.45;101906.94;5035282;28;45466;-71
2022/05/14 08:25:29;;;;;;;;;3.50;3.50;;;;;19.72;42.90;101902.91;5039803;28;45384;-71
2022/05/14 08:27:54;;;;;;;;;4.75;4.00;;;;;19.79;42.42;101892.91;5039847;28;45217;-72
2022/05/14 08:30:20;;;;;;;;;4.50;4.50;;;;;19.79;42.49;101899.97;5039847;28;45216;-73
2022/05/14 08:32:45;;;;;;;;;3.67;3.00;;;;;19.73;41.94;101899.34;5039499;28;45350;-70
2022/05/14 08:35:12;;;;;;;;;4.75;3.75;;;;;19.72;42.57;101904.69;5037744;28;45278;-71
2022/05/14 08:37:38;;;;;;;;;5.25;4.00;;;;;19.82;42.77;101899.84;5038690;28;45260;-73
2022/05/14 08:40:09;;;;;;;;;7.25;4.50;;;;;19.98;42.61;101900.81;5041775;28;45423;-70
2022/05/14 08:42:36;;;;;;;;;4.00;4.00;;;;;20.13;42.03;101899.22;5049498;28;45634;-71
2022/05/14 08:45:02;;;;;;;;;3.00;3.00;;;;;20.34;42.19;101899.00;5047952;28;45472;-73
2022/05/14 08:47:33;;;;;;;;;6.00;5.75;;;;;20.44;41.46;101894.19;5047348;28;45464;-70
2022/05/14 08:49:58;;;;;;;;;6.25;4.50;;;;;20.62;41.32;101892.34;5044438;28;45343;-74
2022/05/14 08:52:26;;;;;;;;;7.00;5.25;;;;;20.78;41.73;101885.38;5047684;28;46086;-72
2022/05/14 08:55:00;;;;;;;;;7.00;7.00;;;;;20.98;41.63;101886.09;5048114;28;45752;-75
2022/05/14 08:57:33;;;;;;;;;5.50;4.75;;;;;21.17;40.99;101887.69;5046431;28;45484;-75
2022/05/14 08:59:59;;;;;;;;;9.25;9.25;;;;;21.27;41.06;101884.59;5046270;28;45408;-70
2022/05/14 09:02:25;;;;;;;;;6.00;2.25;;;;;21.40;41.05;101877.69;5046930;28;45556;-73
2022/05/14 09:04:57;;;;;;;;;4.50;3.00;;;;;21.34;40.69;101881.53;5048715;28;45310;-76
2022/05/14 09:07:23;;;;;;;;;6.00;5.00;;;;;21.21;40.64;101881.28;5048225;28;45357;-73
2022/05/14 09:09:54;;;;;;;;;5.00;5.00;;;;;21.19;40.69;101880.53;5046280;28;45640;-73
2022/05/14 09:12:27;;;;;;;;;7.00;5.00;;;;;21.28;40.79;101881.03;5046620;28;45601;-74
2022/05/14 09:14:59;;;;;;;;;8.50;5.75;;;;;21.32;40.81;101886.06;5048795;28;45295;-74
2022/05/14 09:17:29;;;;;;;;;6.50;6.50;;;;;21.26;40.49;101875.81;5042266;28;45457;-77
2022/05/14 09:19:55;;;;;;;;;6.25;6.25;;;;;21.22;40.29;101874.22;5038829;28;45334;-73
2022/05/14 09:22:30;;;;;;;;;9.00;6.00;;;;;21.20;40.54;101878.75;5038333;28;45352;-74
2022/05/14 09:25:17;;;;;;;;;7.00;7.00;;;;;21.34;40.38;101876.25;5043719;28;45348;-77
2022/05/14 09:27:45;;;;;;;;;6.75;6.50;;;;;21.41;40.11;101882.91;5047153;28;45494;-75
2022/05/14 09:30:22;;;;;;;;;6.75;5.50;;;;;21.42;40.07;101865.22;5046479;28;45484;-77
2022/05/14 09:32:49;;;;;;;;;4.00;4.00;;;;;21.56;40.19;101876.78;5048367;28;46361;-76
2022/05/14 09:35:16;;;;;;;;;4.00;4.00;;;;;21.59;39.89;101870.44;5045903;28;45607;-67
2022/05/14 09:37:42;;;;;;;;;4.25;4.00;;;;;21.59;40.21;101874.88;5047251;28;45391;-69
2022/05/14 09:40:13;;;;;;;;;4.00;4.00;;;;;21.60;39.37;101861.56;5043247;28;45637;-71
2022/05/14 09:42:44;;;;;;;;;6.75;4.75;;;;;21.66;39.61;101863.03;5029184;28;47231;-72
2022/05/14 09:45:32;;;;;;;;;5.00;5.00;;;;;21.59;39.24;101859.00;5038481;28;45288;-67
2022/05/14 09:48:09;;;;;;;;;6.75;4.75;;;;;21.57;39.46;101848.53;5036918;28;45232;-74
2022/05/14 09:50:35;;;;;;;;;6.50;5.50;;;;;21.63;38.83;101852.63;5044598;28;45431;-75
2022/05/14 09:53:04;;;;;;;;;5.00;2.75;;;;;21.70;38.97;101843.41;5052386;28;45507;-75
2022/05/14 09:55:55;;;;;;;;;10.25;8.50;;;;;21.85;39.03;101837.25;5048144;28;45367;-74
2022/05/14 09:58:53;;;;;;;;;7.25;5.50;;;;;21.99;38.71;101837.28;5034363;28;45402;-69
2022/05/14 10:01:37;;;;;;;;;4.00;3.75;;;;;22.14;38.63;101838.22;5040981;28;45415;-68
2022/05/14 10:04:21;;;;;;;;;2.00;2.00;;;;;22.22;37.97;101829.81;5050097;28;45541;-75
2022/05/14 10:06:58;;;;;;;;;6.00;4.75;;;;;22.34;37.57;101832.63;5054500;28;45802;-74
2022/05/14 10:09:59;;;;;;;;;3.00;3.00;;;;;22.40;37.11;101826.94;5047250;28;45393;-72
2022/05/14 10:12:31;;;;;;;;;5.25;4.00;;;;;22.49;36.67;101828.22;5046259;28;46047;-76
2022/05/14 10:15:06;;;;;;;;;4.75;4.75;;;;;22.57;36.75;101831.22;5048968;28;46241;-73
2022/05/14 10:17:52;;;;;;;;;2.00;2.00;;;;;22.58;36.66;101827.63;5051110;28;45260;-71
2022/05/14 10:20:17;;;;;;;;;6.00;4.50;;;;;22.57;36.69;101827.72;5051552;28;45237;-74
2022/05/14 10:29:38;;;;;;;;;5.00;5.00;;;;;22.71;36.74;101825.09;5048894;28;45757;-73
2022/05/14 10:32:09;;;;;;;;;4.50;4.50;;;;;22.69;35.95;101825.19;5049087;28;45275;-75
2022/05/14 10:34:51;;;;;;;;;6.25;5.00;;;;;22.71;36.47;101823.31;5052709;28;45647;-73
2022/05/14 10:37:38;;;;;;;;;4.00;4.00;;;;;22.75;36.49;101829.25;5041270;28;46307;-74
2022/05/14 10:40:18;;;;;;;;;5.00;5.00;;;;;22.75;35.79;101822.16;5041650;28;45233;-71
2022/05/14 10:42:52;;;;;;;;;5.50;4.25;;;;;22.90;36.05;101816.91;5049465;28;45481;-76
2022/05/14 10:45:22;;;;;;;;;5.75;3.75;;;;;23.07;36.00;101814.06;5041323;28;45311;-66
2022/05/14 10:48:00;;;;;;;;;7.00;6.00;;;;;23.27;35.90;101816.31;5040676;28;45333;-72
2022/05/14 10:50:28;;;;;;;;;5.00;5.00;;;;;23.40;35.61;101816.34;5050939;28;45480;-76
2022/05/14 10:52:55;;;;;;;;;6.50;5.00;;;;;23.46;35.12;101810.69;5041957;28;45498;-67
2022/05/14 10:55:29;;;;;;;;;3.25;3.25;;;;;23.52;35.44;101810.25;5041045;28;45644;-67
2022/05/14 10:57:59;;;;;;;;;4.50;3.00;;;;;23.56;34.62;101800.31;5040738;28;47394;-68
2022/05/14 11:00:28;;;;;;;;;6.50;3.75;;;;;23.64;35.08;101811.31;5033750;28;45511;-67
2022/05/14 11:03:11;;;;;;;;;7.00;4.75;;;;;23.67;33.97;101811.13;5040671;28;45375;-68
2022/05/14 11:05:50;;;;;;;;;5.00;5.00;;;;;23.64;34.56;101800.69;5038615;28;45691;-61
2022/05/14 11:08:29;;;;;;;;;5.50;4.75;;;;;23.72;35.95;101795.72;5041746;28;45335;-62
2022/05/14 11:11:28;;;;;;;;;4.00;4.00;;;;;23.89;36.25;101805.22;5040632;28;45339;-64
2022/05/14 11:14:06;;;;;;;;;4.75;4.75;;;;;23.98;35.20;101802.81;5033917;28;45554;-61
2022/05/14 11:16:48;;;;;;;;;6.50;4.25;;;;;24.11;35.16;101802.00;5047589;28;45486;-61
2022/05/14 11:19:29;;;;;;;;;6.25;6.00;;;;;24.17;35.07;101793.59;5049814;28;45679;-62
2022/05/14 11:21:55;;;;;;;;;6.50;6.00;;;;;24.21;34.07;101795.94;5043305;28;46044;-63
2022/05/14 11:24:33;;;;;;;;;6.00;6.00;;;;;24.22;34.29;101784.34;5049258;28;45354;-64
2022/05/14 11:26:59;;;;;;;;;2.25;2.25;;;;;24.16;34.15;101776.81;5042160;28;45221;-62
2022/05/14 11:29:28;;;;;;;;;7.75;6.00;;;;;24.03;33.56;101783.03;5041490;28;46083;-62
2022/05/14 11:31:56;;;;;;;;;6.75;6.75;;;;;23.91;34.00;101780.28;5040284;28;45237;-61
2022/05/14 11:34:25;;;;;;;;;6.25;6.25;;;;;23.93;35.11;101778.38;5040444;28;45481;-62
2022/05/14 11:36:54;;;;;;;;;6.25;6.25;;;;;24.04;34.93;101776.81;5040273;28;45483;-69
2022/05/14 11:39:20;;;;;;;;;7.75;6.00;;;;;24.12;35.13;101771.81;5048036;28;45529;-68
2022/05/14 11:41:45;;;;;;;;;5.50;5.50;;;;;24.16;33.84;101765.34;5045682;28;45319;-69
2022/05/14 11:44:11;;;;;;;;;6.00;5.00;;;;;24.18;33.67;101763.44;5045955;28;45434;-67
2022/05/14 11:46:50;;;;;;;;;11.25;11.25;;;;;24.18;34.52;101774.03;5040233;28;45434;-68
2022/05/14 11:49:26;;;;;;;;;6.25;5.50;;;;;24.17;32.85;101762.56;5048857;28;47302;-70